sensor_id;sensor_type;location;lat;lon;timestamp;P1;durP1;ratioP1;P2;durP2;ratioP2
40154;SDS011;25875;48.202;16.334;2023-11-18T00:00:45;4.18;;;2.92;;
40154;SDS011;25875;48.202;16.334;2023-11-18T00:03:11;4.15;;;3.20;;
40154;SDS011;25875;48.202;16.334;2023-11-18T00:05:38;4.40;;;3.38;;
40154;SDS011;25875;48.202;16.334;2023-11-18T00:08:06;4.03;;;3.10;;
40154;SDS011;25875;48.202;16.334;2023-11-18T00:10:32;4.35;;;3.05;;
40154;SDS011;25875;48.202;16.334;2023-11-18T00:12:59;4.85;;;3.08;;
40154;SDS011;25875;48.202;16.334;2023-11-18T00:15:26;6.28;;;3.92;;
40154;SDS011;25875;48.202;16.334;2023-11-18T00:17:53;4.00;;;3.22;;
40154;SDS011;25875;48.202;16.334;2023-11-18T00:20:20;3.55;;;3.20;;
40154;SDS011;25875;48.202;16.334;2023-11-18T00:22:49;3.88;;;3.10;;
40154;SDS011;25875;48.202;16.334;2023-11-18T00:25:17;4.60;;;3.33;;
40154;SDS011;25875;48.202;16.334;2023-11-18T00:27:44;4.80;;;3.05;;
40154;SDS011;25875;48.202;16.334;2023-11-18T00:30:11;4.28;;;3.05;;
40154;SDS011;25875;48.202;16.334;2023-11-18T00:32:38;4.03;;;2.90;;
40154;SDS011;25875;48.202;16.334;2023-11-18T00:35:05;4.40;;;2.95;;
40154;SDS011;25875;48.202;16.334;2023-11-18T00:37:33;4.05;;;3.00;;
40154;SDS011;25875;48.202;16.334;2023-11-18T00:40:00;4.70;;;3.15;;
40154;SDS011;25875;48.202;16.334;2023-11-18T00:42:28;3.92;;;2.60;;
40154;SDS011;25875;48.202;16.334;2023-11-18T00:44:54;4.45;;;2.83;;
40154;SDS011;25875;48.202;16.334;2023-11-18T00:47:22;3.67;;;3.05;;
40154;SDS011;25875;48.202;16.334;2023-11-18T00:49:49;3.88;;;2.40;;
40154;SDS011;25875;48.202;16.334;2023-11-18T00:52:17;3.20;;;2.72;;
40154;SDS011;25875;48.202;16.334;2023-11-18T00:54:43;4.05;;;2.75;;
40154;SDS011;25875;48.202;16.334;2023-11-18T00:57:10;3.70;;;3.05;;
40154;SDS011;25875;48.202;16.334;2023-11-18T00:59:38;4.00;;;3.60;;
40154;SDS011;25875;48.202;16.334;2023-11-18T01:02:08;4.28;;;2.80;;
40154;SDS011;25875;48.202;16.334;2023-11-18T01:04:34;5.15;;;3.00;;
40154;SDS011;25875;48.202;16.334;2023-11-18T01:07:01;3.80;;;2.80;;
40154;SDS011;25875;48.202;16.334;2023-11-18T01:09:28;3.60;;;2.83;;
40154;SDS011;25875;48.202;16.334;2023-11-18T01:12:01;3.78;;;3.00;;
40154;SDS011;25875;48.202;16.334;2023-11-18T01:14:28;3.38;;;3.08;;
40154;SDS011;25875;48.202;16.334;2023-11-18T01:16:56;4.97;;;3.15;;
40154;SDS011;25875;48.202;16.334;2023-11-18T01:19:24;4.20;;;2.70;;
40154;SDS011;25875;48.202;16.334;2023-11-18T01:21:51;4.28;;;2.80;;
40154;SDS011;25875;48.202;16.334;2023-11-18T01:24:18;3.80;;;2.70;;
40154;SDS011;25875;48.202;16.334;2023-11-18T01:26:45;3.58;;;2.80;;
40154;SDS011;25875;48.202;16.334;2023-11-18T01:29:12;3.22;;;2.90;;
40154;SDS011;25875;48.202;16.334;2023-11-18T01:31:38;3.95;;;2.97;;
40154;SDS011;25875;48.202;16.334;2023-11-18T01:34:07;4.32;;;3.33;;
40154;SDS011;25875;48.202;16.334;2023-11-18T01:36:34;3.70;;;3.10;;
40154;SDS011;25875;48.202;16.334;2023-11-18T01:39:00;4.45;;;3.30;;
40154;SDS011;25875;48.202;16.334;2023-11-18T01:41:28;4.15;;;3.30;;
40154;SDS011;25875;48.202;16.334;2023-11-18T01:43:57;3.97;;;2.92;;
40154;SDS011;25875;48.202;16.334;2023-11-18T01:46:24;3.80;;;3.10;;
40154;SDS011;25875;48.202;16.334;2023-11-18T01:48:51;4.18;;;3.40;;
40154;SDS011;25875;48.202;16.334;2023-11-18T01:51:20;3.47;;;2.70;;
40154;SDS011;25875;48.202;16.334;2023-11-18T01:53:48;4.43;;;3.40;;
40154;SDS011;25875;48.202;16.334;2023-11-18T01:56:16;3.85;;;2.92;;
40154;SDS011;25875;48.202;16.334;2023-11-18T01:58:44;3.97;;;3.25;;
40154;SDS011;25875;48.202;16.334;2023-11-18T02:01:11;3.67;;;2.67;;
40154;SDS011;25875;48.202;16.334;2023-11-18T02:03:41;5.03;;;3.03;;
40154;SDS011;25875;48.202;16.334;2023-11-18T02:06:08;4.82;;;3.33;;
40154;SDS011;25875;48.202;16.334;2023-11-18T02:08:37;3.83;;;2.90;;
40154;SDS011;25875;48.202;16.334;2023-11-18T02:11:09;3.92;;;3.03;;
40154;SDS011;25875;48.202;16.334;2023-11-18T02:13:40;4.80;;;3.07;;
40154;SDS011;25875;48.202;16.334;2023-11-18T02:16:13;3.17;;;2.78;;
40154;SDS011;25875;48.202;16.334;2023-11-18T02:18:42;3.88;;;2.92;;
40154;SDS011;25875;48.202;16.334;2023-11-18T02:21:10;3.15;;;2.78;;
40154;SDS011;25875;48.202;16.334;2023-11-18T02:23:40;4.00;;;3.00;;
40154;SDS011;25875;48.202;16.334;2023-11-18T02:26:09;4.47;;;3.10;;
40154;SDS011;25875;48.202;16.334;2023-11-18T02:28:36;4.18;;;3.13;;
40154;SDS011;25875;48.202;16.334;2023-11-18T02:31:04;3.95;;;3.53;;
40154;SDS011;25875;48.202;16.334;2023-11-18T02:33:40;3.40;;;2.77;;
40154;SDS011;25875;48.202;16.334;2023-11-18T02:36:18;3.78;;;2.97;;
40154;SDS011;25875;48.202;16.334;2023-11-18T02:38:50;3.57;;;2.77;;
40154;SDS011;25875;48.202;16.334;2023-11-18T02:41:18;4.22;;;3.05;;
40154;SDS011;25875;48.202;16.334;2023-11-18T02:43:46;5.00;;;3.40;;
40154;SDS011;25875;48.202;16.334;2023-11-18T02:46:13;3.20;;;2.70;;
40154;SDS011;25875;48.202;16.334;2023-11-18T02:48:41;3.28;;;2.80;;
40154;SDS011;25875;48.202;16.334;2023-11-18T02:51:08;5.30;;;3.22;;
40154;SDS011;25875;48.202;16.334;2023-11-18T02:53:37;3.40;;;2.80;;
40154;SDS011;25875;48.202;16.334;2023-11-18T02:56:06;3.38;;;2.88;;
40154;SDS011;25875;48.202;16.334;2023-11-18T02:58:35;3.65;;;2.67;;
40154;SDS011;25875;48.202;16.334;2023-11-18T03:01:02;4.13;;;2.67;;
40154;SDS011;25875;48.202;16.334;2023-11-18T03:03:29;3.53;;;2.80;;
40154;SDS011;25875;48.202;16.334;2023-11-18T03:05:56;3.45;;;3.10;;
40154;SDS011;25875;48.202;16.334;2023-11-18T03:08:25;3.40;;;2.70;;
40154;SDS011;25875;48.202;16.334;2023-11-18T03:10:54;3.70;;;3.00;;
40154;SDS011;25875;48.202;16.334;2023-11-18T03:13:20;3.30;;;2.75;;
40154;SDS011;25875;48.202;16.334;2023-11-18T03:15:49;4.78;;;2.63;;
40154;SDS011;25875;48.202;16.334;2023-11-18T03:18:17;3.72;;;2.97;;
40154;SDS011;25875;48.202;16.334;2023-11-18T03:20:43;3.45;;;2.70;;
40154;SDS011;25875;48.202;16.334;2023-11-18T03:23:10;3.38;;;2.60;;
40154;SDS011;25875;48.202;16.334;2023-11-18T03:25:37;3.97;;;2.88;;
40154;SDS011;25875;48.202;16.334;2023-11-18T03:28:04;2.80;;;2.30;;
40154;SDS011;25875;48.202;16.334;2023-11-18T03:30:32;3.13;;;2.50;;
40154;SDS011;25875;48.202;16.334;2023-11-18T03:33:01;3.75;;;2.47;;
40154;SDS011;25875;48.202;16.334;2023-11-18T03:35:29;3.05;;;2.47;;
40154;SDS011;25875;48.202;16.334;2023-11-18T03:37:56;3.65;;;2.92;;
40154;SDS011;25875;48.202;16.334;2023-11-18T03:40:22;3.47;;;2.45;;
40154;SDS011;25875;48.202;16.334;2023-11-18T03:42:49;2.97;;;2.58;;
40154;SDS011;25875;48.202;16.334;2023-11-18T03:45:16;4.28;;;2.80;;
40154;SDS011;25875;48.202;16.334;2023-11-18T03:47:43;3.10;;;2.20;;
40154;SDS011;25875;48.202;16.334;2023-11-18T03:50:11;3.80;;;2.72;;
40154;SDS011;25875;48.202;16.334;2023-11-18T03:52:38;2.75;;;2.45;;
40154;SDS011;25875;48.202;16.334;2023-11-18T03:55:05;3.53;;;2.58;;
40154;SDS011;25875;48.202;16.334;2023-11-18T03:57:33;3.47;;;2.60;;
40154;SDS011;25875;48.202;16.334;2023-11-18T04:00:00;2.88;;;2.20;;
40154;SDS011;25875;48.202;16.334;2023-11-18T04:02:28;3.60;;;2.83;;
40154;SDS011;25875;48.202;16.334;2023-11-18T04:04:54;2.92;;;2.40;;
40154;SDS011;25875;48.202;16.334;2023-11-18T04:07:22;3.10;;;2.63;;
40154;SDS011;25875;48.202;16.334;2023-11-18T04:09:49;3.20;;;2.30;;
40154;SDS011;25875;48.202;16.334;2023-11-18T04:12:15;3.65;;;2.50;;
40154;SDS011;25875;48.202;16.334;2023-11-18T04:14:42;3.45;;;2.50;;
40154;SDS011;25875;48.202;16.334;2023-11-18T04:17:09;3.17;;;2.40;;
40154;SDS011;25875;48.202;16.334;2023-11-18T04:19:35;3.13;;;2.70;;
40154;SDS011;25875;48.202;16.334;2023-11-18T04:22:02;4.07;;;2.83;;
40154;SDS011;25875;48.202;16.334;2023-11-18T04:24:31;3.10;;;2.60;;
40154;SDS011;25875;48.202;16.334;2023-11-18T04:26:57;3.13;;;2.60;;
40154;SDS011;25875;48.202;16.334;2023-11-18T04:29:24;3.72;;;3.03;;
40154;SDS011;25875;48.202;16.334;2023-11-18T04:31:51;4.30;;;3.10;;
40154;SDS011;25875;48.202;16.334;2023-11-18T04:34:18;4.07;;;2.85;;
40154;SDS011;25875;48.202;16.334;2023-11-18T04:36:45;3.75;;;2.83;;
40154;SDS011;25875;48.202;16.334;2023-11-18T04:39:11;3.65;;;3.00;;
40154;SDS011;25875;48.202;16.334;2023-11-18T04:41:42;3.78;;;3.38;;
40154;SDS011;25875;48.202;16.334;2023-11-18T04:44:08;3.83;;;3.22;;
40154;SDS011;25875;48.202;16.334;2023-11-18T04:46:35;3.15;;;2.85;;
40154;SDS011;25875;48.202;16.334;2023-11-18T04:49:02;4.13;;;3.33;;
40154;SDS011;25875;48.202;16.334;2023-11-18T04:51:28;5.22;;;3.22;;
40154;SDS011;25875;48.202;16.334;2023-11-18T04:53:55;4.97;;;3.88;;
40154;SDS011;25875;48.202;16.334;2023-11-18T04:56:21;4.53;;;3.38;;
40154;SDS011;25875;48.202;16.334;2023-11-18T04:58:49;4.63;;;3.45;;
40154;SDS011;25875;48.202;16.334;2023-11-18T05:01:16;4.55;;;3.67;;
40154;SDS011;25875;48.202;16.334;2023-11-18T05:03:43;5.30;;;3.72;;
40154;SDS011;25875;48.202;16.334;2023-11-18T05:06:10;4.88;;;3.58;;
40154;SDS011;25875;48.202;16.334;2023-11-18T05:08:36;4.97;;;3.80;;
40154;SDS011;25875;48.202;16.334;2023-11-18T05:11:03;5.22;;;4.20;;
40154;SDS011;25875;48.202;16.334;2023-11-18T05:13:30;4.70;;;3.78;;
40154;SDS011;25875;48.202;16.334;2023-11-18T05:15:59;4.35;;;3.40;;
40154;SDS011;25875;48.202;16.334;2023-11-18T05:18:25;4.18;;;3.45;;
40154;SDS011;25875;48.202;16.334;2023-11-18T05:20:54;4.07;;;3.67;;
40154;SDS011;25875;48.202;16.334;2023-11-18T05:23:22;9.05;;;4.22;;
40154;SDS011;25875;48.202;16.334;2023-11-18T05:25:49;5.07;;;4.00;;
40154;SDS011;25875;48.202;16.334;2023-11-18T05:28:15;3.90;;;3.50;;
40154;SDS011;25875;48.202;16.334;2023-11-18T05:30:42;4.70;;;3.90;;
40154;SDS011;25875;48.202;16.334;2023-11-18T05:33:10;5.72;;;4.28;;
40154;SDS011;25875;48.202;16.334;2023-11-18T05:35:42;4.85;;;3.95;;
40154;SDS011;25875;48.202;16.334;2023-11-18T05:38:13;4.70;;;4.20;;
40154;SDS011;25875;48.202;16.334;2023-11-18T05:40:41;4.85;;;4.32;;
40154;SDS011;25875;48.202;16.334;2023-11-18T05:43:15;4.32;;;3.92;;
40154;SDS011;25875;48.202;16.334;2023-11-18T05:45:44;5.30;;;3.90;;
40154;SDS011;25875;48.202;16.334;2023-11-18T05:48:32;4.80;;;3.97;;
40154;SDS011;25875;48.202;16.334;2023-11-18T05:50:59;5.40;;;4.35;;
40154;SDS011;25875;48.202;16.334;2023-11-18T05:53:26;4.45;;;3.85;;
40154;SDS011;25875;48.202;16.334;2023-11-18T05:55:52;5.18;;;3.80;;
40154;SDS011;25875;48.202;16.334;2023-11-18T05:58:19;6.07;;;4.30;;
40154;SDS011;25875;48.202;16.334;2023-11-18T06:00:46;4.65;;;3.70;;
40154;SDS011;25875;48.202;16.334;2023-11-18T06:03:13;3.92;;;3.40;;
40154;SDS011;25875;48.202;16.334;2023-11-18T06:05:41;4.95;;;3.65;;
40154;SDS011;25875;48.202;16.334;2023-11-18T06:08:08;4.32;;;3.88;;
40154;SDS011;25875;48.202;16.334;2023-11-18T06:10:36;4.55;;;3.75;;
40154;SDS011;25875;48.202;16.334;2023-11-18T06:13:03;4.38;;;3.80;;
40154;SDS011;25875;48.202;16.334;2023-11-18T06:15:31;4.25;;;3.63;;
40154;SDS011;25875;48.202;16.334;2023-11-18T06:17:58;4.30;;;3.53;;
40154;SDS011;25875;48.202;16.334;2023-11-18T06:20:24;4.03;;;3.53;;
40154;SDS011;25875;48.202;16.334;2023-11-18T06:22:52;12.18;;;3.85;;
40154;SDS011;25875;48.202;16.334;2023-11-18T06:25:19;4.65;;;3.92;;
40154;SDS011;25875;48.202;16.334;2023-11-18T06:27:46;3.75;;;3.35;;
40154;SDS011;25875;48.202;16.334;2023-11-18T06:30:13;3.90;;;3.15;;
40154;SDS011;25875;48.202;16.334;2023-11-18T06:32:41;4.25;;;3.58;;
40154;SDS011;25875;48.202;16.334;2023-11-18T06:35:07;4.25;;;3.58;;
40154;SDS011;25875;48.202;16.334;2023-11-18T06:37:34;4.20;;;3.53;;
40154;SDS011;25875;48.202;16.334;2023-11-18T06:40:03;4.88;;;3.15;;
40154;SDS011;25875;48.202;16.334;2023-11-18T06:42:41;4.28;;;3.72;;
40154;SDS011;25875;48.202;16.334;2023-11-18T06:45:08;4.35;;;3.20;;
40154;SDS011;25875;48.202;16.334;2023-11-18T06:47:35;4.18;;;3.42;;
40154;SDS011;25875;48.202;16.334;2023-11-18T06:50:03;4.05;;;3.30;;
40154;SDS011;25875;48.202;16.334;2023-11-18T06:52:30;4.15;;;3.53;;
40154;SDS011;25875;48.202;16.334;2023-11-18T06:54:57;4.60;;;3.50;;
40154;SDS011;25875;48.202;16.334;2023-11-18T06:57:25;4.20;;;3.67;;
40154;SDS011;25875;48.202;16.334;2023-11-18T06:59:52;4.07;;;3.30;;
40154;SDS011;25875;48.202;16.334;2023-11-18T07:02:18;5.80;;;3.88;;
40154;SDS011;25875;48.202;16.334;2023-11-18T07:04:46;4.18;;;3.55;;
40154;SDS011;25875;48.202;16.334;2023-11-18T07:07:12;5.00;;;3.90;;
40154;SDS011;25875;48.202;16.334;2023-11-18T07:09:39;4.30;;;3.80;;
40154;SDS011;25875;48.202;16.334;2023-11-18T07:12:06;5.30;;;3.60;;
40154;SDS011;25875;48.202;16.334;2023-11-18T07:14:34;4.80;;;3.63;;
40154;SDS011;25875;48.202;16.334;2023-11-18T07:17:01;4.00;;;3.30;;
40154;SDS011;25875;48.202;16.334;2023-11-18T07:19:29;4.40;;;3.67;;
40154;SDS011;25875;48.202;16.334;2023-11-18T07:21:58;5.25;;;3.70;;
40154;SDS011;25875;48.202;16.334;2023-11-18T07:24:25;3.97;;;3.55;;
40154;SDS011;25875;48.202;16.334;2023-11-18T07:26:52;4.03;;;3.40;;
40154;SDS011;25875;48.202;16.334;2023-11-18T07:29:19;5.57;;;4.15;;
40154;SDS011;25875;48.202;16.334;2023-11-18T07:31:49;4.53;;;3.80;;
40154;SDS011;25875;48.202;16.334;2023-11-18T07:34:16;4.43;;;3.60;;
40154;SDS011;25875;48.202;16.334;2023-11-18T07:36:43;5.13;;;3.90;;
40154;SDS011;25875;48.202;16.334;2023-11-18T07:39:11;4.57;;;3.50;;
40154;SDS011;25875;48.202;16.334;2023-11-18T07:41:40;4.65;;;3.20;;
40154;SDS011;25875;48.202;16.334;2023-11-18T07:44:07;4.45;;;3.70;;
40154;SDS011;25875;48.202;16.334;2023-11-18T07:46:37;3.75;;;3.35;;
40154;SDS011;25875;48.202;16.334;2023-11-18T07:49:09;4.10;;;3.50;;
40154;SDS011;25875;48.202;16.334;2023-11-18T07:51:35;5.47;;;3.60;;
40154;SDS011;25875;48.202;16.334;2023-11-18T07:54:02;3.80;;;3.40;;
40154;SDS011;25875;48.202;16.334;2023-11-18T07:56:29;4.10;;;3.70;;
40154;SDS011;25875;48.202;16.334;2023-11-18T07:58:57;4.85;;;3.70;;
40154;SDS011;25875;48.202;16.334;2023-11-18T08:01:23;4.43;;;3.50;;
40154;SDS011;25875;48.202;16.334;2023-11-18T08:03:51;4.10;;;3.30;;
40154;SDS011;25875;48.202;16.334;2023-11-18T08:06:19;4.35;;;3.60;;
40154;SDS011;25875;48.202;16.334;2023-11-18T08:08:46;4.28;;;3.15;;
40154;SDS011;25875;48.202;16.334;2023-11-18T08:11:13;4.28;;;3.88;;
40154;SDS011;25875;48.202;16.334;2023-11-18T08:13:40;4.80;;;4.30;;
40154;SDS011;25875;48.202;16.334;2023-11-18T08:16:06;4.47;;;3.80;;
40154;SDS011;25875;48.202;16.334;2023-11-18T08:18:34;4.95;;;4.13;;
40154;SDS011;25875;48.202;16.334;2023-11-18T08:21:01;4.45;;;3.65;;
40154;SDS011;25875;48.202;16.334;2023-11-18T08:23:31;5.28;;;3.72;;
40154;SDS011;25875;48.202;16.334;2023-11-18T08:25:58;5.95;;;4.10;;
40154;SDS011;25875;48.202;16.334;2023-11-18T08:28:24;4.65;;;4.15;;
40154;SDS011;25875;48.202;16.334;2023-11-18T08:30:51;4.65;;;4.00;;
40154;SDS011;25875;48.202;16.334;2023-11-18T08:33:18;4.20;;;3.65;;
40154;SDS011;25875;48.202;16.334;2023-11-18T08:35:45;4.65;;;3.92;;
40154;SDS011;25875;48.202;16.334;2023-11-18T08:38:12;5.57;;;4.05;;
40154;SDS011;25875;48.202;16.334;2023-11-18T08:40:40;4.82;;;3.85;;
40154;SDS011;25875;48.202;16.334;2023-11-18T08:43:08;4.18;;;3.65;;
40154;SDS011;25875;48.202;16.334;2023-11-18T08:45:36;4.28;;;3.88;;
40154;SDS011;25875;48.202;16.334;2023-11-18T08:48:03;5.75;;;3.95;;
40154;SDS011;25875;48.202;16.334;2023-11-18T08:50:32;6.07;;;4.07;;
40154;SDS011;25875;48.202;16.334;2023-11-18T08:52:59;5.28;;;4.55;;
40154;SDS011;25875;48.202;16.334;2023-11-18T08:55:31;4.63;;;3.92;;
40154;SDS011;25875;48.202;16.334;2023-11-18T08:58:17;4.18;;;3.42;;
40154;SDS011;25875;48.202;16.334;2023-11-18T09:00:47;4.85;;;3.50;;
40154;SDS011;25875;48.202;16.334;2023-11-18T09:03:18;5.30;;;4.03;;
40154;SDS011;25875;48.202;16.334;2023-11-18T09:05:51;4.47;;;3.72;;
40154;SDS011;25875;48.202;16.334;2023-11-18T09:08:25;5.15;;;3.88;;
40154;SDS011;25875;48.202;16.334;2023-11-18T09:10:52;4.43;;;3.80;;
40154;SDS011;25875;48.202;16.334;2023-11-18T09:13:21;4.88;;;4.25;;
40154;SDS011;25875;48.202;16.334;2023-11-18T09:15:50;4.30;;;3.60;;
40154;SDS011;25875;48.202;16.334;2023-11-18T09:18:17;4.72;;;3.78;;
40154;SDS011;25875;48.202;16.334;2023-11-18T09:20:45;4.35;;;3.65;;
40154;SDS011;25875;48.202;16.334;2023-11-18T09:23:12;5.20;;;4.70;;
40154;SDS011;25875;48.202;16.334;2023-11-18T09:25:41;6.45;;;4.25;;
40154;SDS011;25875;48.202;16.334;2023-11-18T09:28:07;4.45;;;3.53;;
40154;SDS011;25875;48.202;16.334;2023-11-18T09:30:40;4.75;;;3.80;;
40154;SDS011;25875;48.202;16.334;2023-11-18T09:33:15;4.28;;;3.88;;
40154;SDS011;25875;48.202;16.334;2023-11-18T09:35:50;5.03;;;4.15;;
40154;SDS011;25875;48.202;16.334;2023-11-18T09:38:21;4.80;;;4.30;;
40154;SDS011;25875;48.202;16.334;2023-11-18T09:40:48;5.85;;;4.22;;
40154;SDS011;25875;48.202;16.334;2023-11-18T09:43:18;5.55;;;4.25;;
40154;SDS011;25875;48.202;16.334;2023-11-18T09:45:48;4.57;;;4.03;;
40154;SDS011;25875;48.202;16.334;2023-11-18T09:48:20;5.18;;;4.03;;
40154;SDS011;25875;48.202;16.334;2023-11-18T09:50:51;5.15;;;3.80;;
40154;SDS011;25875;48.202;16.334;2023-11-18T09:53:18;5.63;;;4.70;;
40154;SDS011;25875;48.202;16.334;2023-11-18T09:55:47;5.40;;;4.40;;
40154;SDS011;25875;48.202;16.334;2023-11-18T10:00:50;5.00;;;3.95;;
40154;SDS011;25875;48.202;16.334;2023-11-18T10:03:24;5.10;;;4.13;;
40154;SDS011;25875;48.202;16.334;2023-11-18T10:05:51;5.72;;;5.13;;
40154;SDS011;25875;48.202;16.334;2023-11-18T10:08:20;5.63;;;4.20;;
40154;SDS011;25875;48.202;16.334;2023-11-18T10:10:51;6.85;;;4.90;;
40154;SDS011;25875;48.202;16.334;2023-11-18T10:13:30;4.55;;;4.05;;
40154;SDS011;25875;48.202;16.334;2023-11-18T10:16:01;5.32;;;4.32;;
40154;SDS011;25875;48.202;16.334;2023-11-18T10:18:30;5.07;;;4.38;;
40154;SDS011;25875;48.202;16.334;2023-11-18T10:21:00;5.18;;;4.25;;
40154;SDS011;25875;48.202;16.334;2023-11-18T10:23:29;6.05;;;5.03;;
40154;SDS011;25875;48.202;16.334;2023-11-18T10:25:59;5.90;;;4.45;;
40154;SDS011;25875;48.202;16.334;2023-11-18T10:28:28;7.10;;;4.75;;
40154;SDS011;25875;48.202;16.334;2023-11-18T10:30:58;6.30;;;4.80;;
40154;SDS011;25875;48.202;16.334;2023-11-18T10:33:30;5.32;;;4.35;;
40154;SDS011;25875;48.202;16.334;2023-11-18T10:35:57;7.47;;;5.07;;
40154;SDS011;25875;48.202;16.334;2023-11-18T10:38:28;6.45;;;4.93;;
40154;SDS011;25875;48.202;16.334;2023-11-18T10:40:56;5.35;;;4.32;;
40154;SDS011;25875;48.202;16.334;2023-11-18T10:43:26;6.25;;;5.30;;
40154;SDS011;25875;48.202;16.334;2023-11-18T10:46:03;5.53;;;4.68;;
40154;SDS011;25875;48.202;16.334;2023-11-18T10:48:38;6.10;;;4.85;;
40154;SDS011;25875;48.202;16.334;2023-11-18T10:51:08;5.20;;;4.45;;
40154;SDS011;25875;48.202;16.334;2023-11-18T10:53:38;7.35;;;5.68;;
40154;SDS011;25875;48.202;16.334;2023-11-18T10:56:16;4.93;;;4.22;;
40154;SDS011;25875;48.202;16.334;2023-11-18T10:58:44;6.15;;;5.05;;
40154;SDS011;25875;48.202;16.334;2023-11-18T11:01:11;5.32;;;4.60;;
40154;SDS011;25875;48.202;16.334;2023-11-18T11:03:47;6.07;;;5.07;;
40154;SDS011;25875;48.202;16.334;2023-11-18T11:06:21;5.43;;;4.70;;
40154;SDS011;25875;48.202;16.334;2023-11-18T11:08:49;8.40;;;6.65;;
40154;SDS011;25875;48.202;16.334;2023-11-18T11:11:17;6.38;;;5.32;;
40154;SDS011;25875;48.202;16.334;2023-11-18T11:13:47;6.60;;;4.97;;
40154;SDS011;25875;48.202;16.334;2023-11-18T11:16:16;6.43;;;4.60;;
40154;SDS011;25875;48.202;16.334;2023-11-18T11:18:47;6.25;;;5.35;;
40154;SDS011;25875;48.202;16.334;2023-11-18T11:21:20;4.80;;;4.30;;
40154;SDS011;25875;48.202;16.334;2023-11-18T11:23:53;5.20;;;4.60;;
40154;SDS011;25875;48.202;16.334;2023-11-18T11:29:24;5.85;;;5.07;;
40154;SDS011;25875;48.202;16.334;2023-11-18T11:31:56;5.53;;;4.93;;
40154;SDS011;25875;48.202;16.334;2023-11-18T11:34:30;5.57;;;4.95;;
40154;SDS011;25875;48.202;16.334;2023-11-18T11:36:59;8.05;;;4.75;;
40154;SDS011;25875;48.202;16.334;2023-11-18T11:39:26;6.78;;;5.30;;
40154;SDS011;25875;48.202;16.334;2023-11-18T11:41:55;8.35;;;4.97;;
40154;SDS011;25875;48.202;16.334;2023-11-18T11:44:24;6.45;;;4.97;;
40154;SDS011;25875;48.202;16.334;2023-11-18T11:46:54;5.68;;;4.57;;
40154;SDS011;25875;48.202;16.334;2023-11-18T11:49:25;5.55;;;4.93;;
40154;SDS011;25875;48.202;16.334;2023-11-18T11:51:57;5.10;;;4.40;;
40154;SDS011;25875;48.202;16.334;2023-11-18T11:54:29;6.40;;;5.15;;
40154;SDS011;25875;48.202;16.334;2023-11-18T11:57:04;4.97;;;4.47;;
40154;SDS011;25875;48.202;16.334;2023-11-18T11:59:34;7.68;;;5.72;;
40154;SDS011;25875;48.202;16.334;2023-11-18T12:02:03;7.10;;;6.28;;
40154;SDS011;25875;48.202;16.334;2023-11-18T12:04:34;8.65;;;5.25;;
40154;SDS011;25875;48.202;16.334;2023-11-18T12:07:04;7.65;;;5.68;;
40154;SDS011;25875;48.202;16.334;2023-11-18T12:09:34;6.75;;;5.30;;
40154;SDS011;25875;48.202;16.334;2023-11-18T12:12:04;8.23;;;5.10;;
40154;SDS011;25875;48.202;16.334;2023-11-18T12:14:48;7.30;;;5.78;;
40154;SDS011;25875;48.202;16.334;2023-11-18T12:17:16;7.85;;;5.97;;
40154;SDS011;25875;48.202;16.334;2023-11-18T12:19:47;6.82;;;5.07;;
40154;SDS011;25875;48.202;16.334;2023-11-18T12:22:16;7.10;;;5.70;;
40154;SDS011;25875;48.202;16.334;2023-11-18T12:27:58;6.05;;;5.30;;
40154;SDS011;25875;48.202;16.334;2023-11-18T12:30:40;8.73;;;5.90;;
40154;SDS011;25875;48.202;16.334;2023-11-18T12:33:18;6.53;;;5.40;;
40154;SDS011;25875;48.202;16.334;2023-11-18T12:38:59;7.65;;;6.75;;
40154;SDS011;25875;48.202;16.334;2023-11-18T12:41:42;9.50;;;6.25;;
40154;SDS011;25875;48.202;16.334;2023-11-18T12:44:14;8.55;;;6.55;;
40154;SDS011;25875;48.202;16.334;2023-11-18T12:46:49;7.25;;;5.60;;
40154;SDS011;25875;48.202;16.334;2023-11-18T12:49:18;6.15;;;5.55;;
40154;SDS011;25875;48.202;16.334;2023-11-18T12:51:48;6.97;;;6.13;;
40154;SDS011;25875;48.202;16.334;2023-11-18T12:54:17;6.82;;;6.13;;
40154;SDS011;25875;48.202;16.334;2023-11-18T12:56:45;8.15;;;6.05;;
40154;SDS011;25875;48.202;16.334;2023-11-18T12:59:14;8.23;;;5.97;;
40154;SDS011;25875;48.202;16.334;2023-11-18T13:01:43;7.72;;;6.28;;
40154;SDS011;25875;48.202;16.334;2023-11-18T13:04:15;8.07;;;5.38;;
40154;SDS011;25875;48.202;16.334;2023-11-18T13:06:42;9.10;;;5.47;;
40154;SDS011;25875;48.202;16.334;2023-11-18T13:09:09;7.78;;;5.28;;
40154;SDS011;25875;48.202;16.334;2023-11-18T13:11:37;5.53;;;4.28;;
40154;SDS011;25875;48.202;16.334;2023-11-18T13:14:07;5.53;;;4.93;;
40154;SDS011;25875;48.202;16.334;2023-11-18T13:16:34;5.80;;;5.13;;
40154;SDS011;25875;48.202;16.334;2023-11-18T13:19:01;6.70;;;5.05;;
40154;SDS011;25875;48.202;16.334;2023-11-18T13:21:30;7.20;;;5.22;;
40154;SDS011;25875;48.202;16.334;2023-11-18T13:24:02;5.80;;;4.90;;
40154;SDS011;25875;48.202;16.334;2023-11-18T13:26:30;5.43;;;4.55;;
40154;SDS011;25875;48.202;16.334;2023-11-18T13:29:00;6.03;;;5.22;;
40154;SDS011;25875;48.202;16.334;2023-11-18T13:31:27;7.30;;;5.55;;
40154;SDS011;25875;48.202;16.334;2023-11-18T13:33:54;8.93;;;5.97;;
40154;SDS011;25875;48.202;16.334;2023-11-18T13:36:21;7.65;;;5.00;;
40154;SDS011;25875;48.202;16.334;2023-11-18T13:38:48;5.82;;;4.63;;
40154;SDS011;25875;48.202;16.334;2023-11-18T13:41:27;5.75;;;4.85;;
40154;SDS011;25875;48.202;16.334;2023-11-18T13:43:54;7.15;;;5.78;;
40154;SDS011;25875;48.202;16.334;2023-11-18T13:46:23;7.38;;;6.38;;
40154;SDS011;25875;48.202;16.334;2023-11-18T13:48:51;7.40;;;5.63;;
40154;SDS011;25875;48.202;16.334;2023-11-18T13:51:19;5.82;;;4.95;;
40154;SDS011;25875;48.202;16.334;2023-11-18T13:53:47;6.65;;;5.93;;
40154;SDS011;25875;48.202;16.334;2023-11-18T13:56:14;6.82;;;5.78;;
40154;SDS011;25875;48.202;16.334;2023-11-18T13:58:42;6.82;;;5.45;;
40154;SDS011;25875;48.202;16.334;2023-11-18T14:01:11;6.18;;;5.22;;
40154;SDS011;25875;48.202;16.334;2023-11-18T14:03:39;5.68;;;4.72;;
40154;SDS011;25875;48.202;16.334;2023-11-18T14:06:09;5.82;;;4.80;;
40154;SDS011;25875;48.202;16.334;2023-11-18T14:08:36;4.93;;;4.43;;
40154;SDS011;25875;48.202;16.334;2023-11-18T14:11:03;5.82;;;4.90;;
40154;SDS011;25875;48.202;16.334;2023-11-18T14:13:30;5.30;;;4.78;;
40154;SDS011;25875;48.202;16.334;2023-11-18T14:16:00;6.75;;;5.55;;
40154;SDS011;25875;48.202;16.334;2023-11-18T14:18:27;4.82;;;4.32;;
40154;SDS011;25875;48.202;16.334;2023-11-18T14:20:54;6.60;;;4.78;;
40154;SDS011;25875;48.202;16.334;2023-11-18T14:23:22;5.75;;;4.97;;
40154;SDS011;25875;48.202;16.334;2023-11-18T14:25:48;7.13;;;5.90;;
40154;SDS011;25875;48.202;16.334;2023-11-18T14:28:15;7.72;;;6.63;;
40154;SDS011;25875;48.202;16.334;2023-11-18T14:30:42;7.63;;;5.97;;
40154;SDS011;25875;48.202;16.334;2023-11-18T14:33:09;5.55;;;4.90;;
40154;SDS011;25875;48.202;16.334;2023-11-18T14:35:36;5.80;;;4.72;;
40154;SDS011;25875;48.202;16.334;2023-11-18T14:38:06;6.93;;;5.25;;
40154;SDS011;25875;48.202;16.334;2023-11-18T14:40:33;7.28;;;5.95;;
40154;SDS011;25875;48.202;16.334;2023-11-18T14:43:00;10.40;;;6.47;;
40154;SDS011;25875;48.202;16.334;2023-11-18T14:45:27;6.07;;;5.45;;
40154;SDS011;25875;48.202;16.334;2023-11-18T14:47:54;7.25;;;5.18;;
40154;SDS011;25875;48.202;16.334;2023-11-18T14:50:21;6.55;;;5.30;;
40154;SDS011;25875;48.202;16.334;2023-11-18T14:52:49;6.80;;;5.18;;